| Date | Time | Temp. (oF) | Dew Point (oF) | Rel. Hum. (%) | Press. (in.) | Wind Dir. (deg.) | Wind Speed (mph) | Hourly Rainfall (i n.) |
|
|---|---|---|---|---|---|---|---|---|---|
| 1 | 08/18 | 24:00 | 76 | 68 | 79 | 30.03 | 110 | 0 | 0.00 |
| 2 | 08/17 | 23:00 | 77 | 68 | 74 | 30.04 | 110 | 0 | 0.00 |
| 3 | 08/17 | 22:00 | 78 | 67 | 71 | 30.06 | 110 | 0 | 0.00 |
| 4 | 08/17 | 21:00 | 80 | 67 | 67 | 30.06 | 110 | 0 | 0.00 |
| 5 | 08/17 | 20:00 | 83 | 67 | 60 | 30.07 | 140 | 1 | 0.00 |
| 6 | 08/17 | 19:00 | 86 | 62 | 46 | 30.07 | 140 | 0 | 0.00 |
| 7 | 08/17 | 18:00 | 89 | 60 | 39 | 30.10 | 160 | 4 | 0.00 |
| 8 | 08/17 | 17:00 | 89 | 56 | 34 | 30.13 | 310 | 2 | 0.00 |
| 9 | 08/17 | 16:00 | 89 | 56 | 34 | 30.12 | 240 | 10 | 0.00 |
| 10 | 08/17 | 15:00 | 88 | 60 | 40 | 30.13 | 310 | 9 | 0.00 |
| 11 | 08/17 | 14:00 | 88 | 66 | 49 | 30.13 | 110 | 1 | 0.00 |
| 12 | 08/17 | 13:00 | 86 | 69 | 58 | 30.15 | 50 | 1 | 0.00 |
| 13 | 08/17 | 12:00 | 85 | 69 | 60 | 30.18 | 270 | 9 | 0.00 |
| 14 | 08/17 | 11:00 | 83 | 71 | 68 | 30.21 | 150 | 4 | 0.00 |
| 15 | 08/17 | 10:00 | 79 | 69 | 73 | 30.21 | 130 | 2 | 0.00 |
| 16 | 08/17 | 09:00 | 75 | 69 | 82 | 30.22 | 310 | 2 | 0.00 |
| 17 | 08/17 | 08:00 | 72 | 68 | 89 | 30.22 | 140 | 4 | 0.00 |
| 18 | 08/17 | 07:00 | 71 | 66 | 87 | 30.24 | 140 | 0 | 0.00 |
| 19 | 08/17 | 06:00 | 74 | 68 | 83 | 30.24 | 140 | 0 | 0.00 |
| 20 | 08/17 | 05:00 | 75 | 68 | 80 | 30.25 | 140 | 0 | 0.00 |
| 21 | 08/17 | 04:00 | 76 | 68 | 78 | 30.26 | 140 | 0 | 0.00 |
| 22 | 08/17 | 03:00 | 73 | 67 | 82 | 30.27 | 140 | 1 | 0.00 |
| 23 | 08/17 | 02:00 | 74 | 65 | 74 | 30.28 | 310 | 0 | 0.00 |
| 24 | 08/17 | 01:00 | 73 | 64 | 74 | 30.30 | 310 | 1 | 0.00 |